Time;durP1;ratioP1;P1;durP2;ratioP2;P2;SDS_P1;SDS_P2;PMS_P1;PMS_P2;Temp;Humidity;BMP_temperature;BMP_pressure;BME280_temperature;BME280_humidity;BME280_pressure;Samples;Min_cycle;Max_cycle;Signal;HPM_P1;HPM_P2
2021/09/15 00:02:01;;;;;;;;;;;;;;;24.27;53.56;101345.47;4917306;29;19923;-63
2021/09/15 00:04:28;;;;;;;;;;;;;;;24.31;53.11;101342.47;4917099;29;19931;-66
2021/09/15 00:06:54;;;;;;;;;;;;;;;24.31;52.92;101345.97;4916806;29;19991;-69
2021/09/15 00:09:21;;;;;;;;;;;;;;;24.33;52.90;101352.03;4916980;29;19929;-69
2021/09/15 00:11:47;;;;;;;;;;;;;;;24.31;52.86;101348.66;4916757;29;20368;-62
2021/09/15 00:14:14;;;;;;;;;;;;;;;24.32;52.72;101350.34;4916807;29;20387;-63
2021/09/15 00:16:40;;;;;;;;;;;;;;;24.30;52.74;101346.97;4916368;29;19930;-66
2021/09/15 00:19:07;;;;;;;;;;;;;;;24.28;52.53;101341.78;4916901;29;19923;-62
2021/09/15 00:21:33;;;;;;;;;;;;;;;24.28;52.29;101347.16;4916682;29;19923;-61
2021/09/15 00:24:00;;;;;;;;;;;;;;;24.23;52.49;101352.16;4916621;29;19923;-62
2021/09/15 00:26:26;;;;;;;;;;;;;;;24.16;52.77;101351.13;4916706;29;19930;-62
2021/09/15 00:28:53;;;;;;;;;;;;;;;24.14;52.58;101350.47;4916572;29;19970;-62
2021/09/15 00:31:19;;;;;;;;;;;;;;;24.10;52.89;101347.25;4916517;29;19923;-61
2021/09/15 00:33:46;;;;;;;;;;;;;;;24.09;53.18;101352.78;4916544;29;20332;-68
2021/09/15 00:36:12;;;;;;;;;;;;;;;24.06;53.29;101347.72;4916745;29;20017;-69
2021/09/15 00:38:39;;;;;;;;;;;;;;;23.99;53.62;101352.06;4916577;29;19970;-66
2021/09/15 00:41:05;;;;;;;;;;;;;;;23.83;53.85;101353.63;4916613;29;19923;-62
2021/09/15 00:43:32;;;;;;;;;;;;;;;23.88;54.08;101347.78;4916538;29;19927;-64
2021/09/15 00:45:59;;;;;;;;;;;;;;;23.85;54.08;101346.28;4916491;29;20372;-61
2021/09/15 00:48:25;;;;;;;;;;;;;;;23.84;53.80;101339.22;4916472;29;19931;-68
2021/09/15 00:50:52;;;;;;;;;;;;;;;23.84;54.06;101338.41;4916564;29;20301;-62
2021/09/15 00:53:18;;;;;;;;;;;;;;;23.85;53.90;101342.75;4920409;29;19930;-61
2021/09/15 00:55:45;;;;;;;;;;;;;;;23.84;53.93;101339.22;4920279;29;19931;-63
2021/09/15 00:58:11;;;;;;;;;;;;;;;23.82;54.13;101341.25;4920343;29;19923;-63
2021/09/15 01:00:38;;;;;;;;;;;;;;;23.81;54.33;101344.91;4920172;29;19923;-62
2021/09/15 01:03:04;;;;;;;;;;;;;;;23.81;54.25;101340.38;4920301;29;20023;-61
2021/09/15 01:05:31;;;;;;;;;;;;;;;23.78;54.49;101342.53;4920240;29;19978;-67
2021/09/15 01:07:58;;;;;;;;;;;;;;;23.77;54.41;101343.56;4920050;29;19952;-60
2021/09/15 01:10:25;;;;;;;;;;;;;;;23.76;54.50;101345.38;4920234;29;19934;-64
2021/09/15 01:12:52;;;;;;;;;;;;;;;23.75;54.32;101350.91;4919822;29;20299;-67
2021/09/15 01:15:19;;;;;;;;;;;;;;;23.68;54.73;101342.69;4919837;29;19986;-67
2021/09/15 01:17:45;;;;;;;;;;;;;;;23.67;54.96;101342.81;4918926;29;19923;-60
2021/09/15 01:20:12;;;;;;;;;;;;;;;23.64;54.63;101347.50;4919981;29;19923;-60
2021/09/15 01:22:38;;;;;;;;;;;;;;;23.60;54.91;101342.59;4918483;29;19927;-64
2021/09/15 01:25:05;;;;;;;;;;;;;;;23.60;54.78;101351.50;4920070;29;20307;-61
2021/09/15 01:27:31;;;;;;;;;;;;;;;23.55;54.62;101350.28;4919888;29;19994;-63
2021/09/15 01:29:58;;;;;;;;;;;;;;;23.56;54.51;101351.97;4919558;29;19934;-66
2021/09/15 01:32:24;;;;;;;;;;;;;;;23.51;54.45;101344.41;4919557;29;19934;-67
2021/09/15 01:34:52;;;;;;;;;;;;;;;23.48;54.36;101348.22;4919460;29;19923;-64
2021/09/15 01:37:19;;;;;;;;;;;;;;;23.46;54.57;101346.72;4919480;29;20287;-65
2021/09/15 01:39:45;;;;;;;;;;;;;;;23.45;54.26;101340.53;4919438;29;19966;-65
2021/09/15 01:42:12;;;;;;;;;;;;;;;23.45;54.32;101339.66;4919598;29;20312;-62
2021/09/15 01:44:43;;;;;;;;;;;;;;;23.48;53.94;101344.72;4919581;29;19927;-68
2021/09/15 01:47:11;;;;;;;;;;;;;;;23.47;54.00;101337.69;4919579;29;20385;-68
2021/09/15 01:49:38;;;;;;;;;;;;;;;23.48;54.06;101342.03;4919252;29;19923;-62
2021/09/15 01:52:06;;;;;;;;;;;;;;;23.53;53.64;101338.88;4919159;29;20296;-61
2021/09/15 01:54:33;;;;;;;;;;;;;;;23.52;53.51;101346.09;4919213;29;19971;-66
2021/09/15 01:56:59;;;;;;;;;;;;;;;23.46;53.97;101344.88;4919227;29;19927;-65
2021/09/15 01:59:26;;;;;;;;;;;;;;;23.43;53.72;101339.00;4919163;29;20292;-63
2021/09/15 02:01:53;;;;;;;;;;;;;;;23.45;53.86;101340.53;4918999;29;19923;-67
2021/09/15 02:04:19;;;;;;;;;;;;;;;23.43;53.67;101344.34;4919235;29;19978;-66
2021/09/15 02:06:46;;;;;;;;;;;;;;;23.40;53.81;101341.97;4918952;29;19923;-68
2021/09/15 02:09:12;;;;;;;;;;;;;;;23.39;53.78;101348.31;4918933;29;19923;-68
2021/09/15 02:11:39;;;;;;;;;;;;;;;23.31;53.74;101343.75;4918905;29;19923;-60
2021/09/15 02:14:06;;;;;;;;;;;;;;;23.26;54.17;101352.28;4918919;29;20336;-61
2021/09/15 02:16:32;;;;;;;;;;;;;;;23.28;54.02;101347.56;4918807;29;19971;-68
2021/09/15 02:18:59;;;;;;;;;;;;;;;23.26;54.22;101352.28;4918779;29;19923;-61
2021/09/15 02:21:25;;;;;;;;;;;;;;;23.23;54.46;101355.25;4918879;29;19927;-60
2021/09/15 02:23:52;;;;;;;;;;;;;;;23.20;54.49;101349.34;4918502;29;19930;-68
2021/09/15 02:26:18;;;;;;;;;;;;;;;23.15;54.87;101355.19;4918718;29;19923;-68
2021/09/15 02:28:45;;;;;;;;;;;;;;;23.11;55.01;101351.13;4918573;29;19926;-67
2021/09/15 02:31:11;;;;;;;;;;;;;;;23.07;55.23;101353.25;4918542;29;20340;-62
2021/09/15 02:33:38;;;;;;;;;;;;;;;23.02;55.27;101358.22;4918403;29;20277;-61
2021/09/15 02:36:04;;;;;;;;;;;;;;;22.98;55.54;101357.69;4918667;29;19982;-63
2021/09/15 02:38:31;;;;;;;;;;;;;;;22.97;55.56;101357.84;4918540;29;19923;-64
2021/09/15 02:40:57;;;;;;;;;;;;;;;22.98;55.58;101357.69;4918274;29;20527;-68
2021/09/15 02:43:24;;;;;;;;;;;;;;;22.94;55.79;101344.75;4918403;29;19923;-67
2021/09/15 02:45:50;;;;;;;;;;;;;;;22.94;55.67;101348.31;4918338;29;19923;-64
2021/09/15 02:48:17;;;;;;;;;;;;;;;22.93;55.96;101351.09;4918267;29;19923;-68
2021/09/15 02:50:43;;;;;;;;;;;;;;;22.88;56.07;101348.91;4918190;29;19994;-62
2021/09/15 02:53:10;;;;;;;;;;;;;;;22.87;56.12;101349.03;4918401;29;19930;-61
2021/09/15 02:55:36;;;;;;;;;;;;;;;22.89;55.93;101344.38;4918067;29;19923;-68
2021/09/15 02:58:04;;;;;;;;;;;;;;;22.82;56.08;101342.31;4918073;29;19923;-68
2021/09/15 03:00:30;;;;;;;;;;;;;;;22.82;56.09;101338.81;4918092;29;19930;-65
2021/09/15 03:02:57;;;;;;;;;;;;;;;22.80;56.15;101340.78;4921094;29;19927;-66
2021/09/15 03:05:24;;;;;;;;;;;;;;;22.78;56.33;101340.13;4932761;29;19922;-65
2021/09/15 03:07:50;;;;;;;;;;;;;;;22.75;56.59;101338.56;4933508;29;20001;-62
2021/09/15 03:10:17;;;;;;;;;;;;;;;22.76;56.31;101345.59;4933728;29;19922;-61
2021/09/15 03:12:43;;;;;;;;;;;;;;;22.81;56.20;101337.13;4933628;29;19922;-61
2021/09/15 03:15:10;;;;;;;;;;;;;;;22.80;56.09;101338.97;4922415;29;20375;-61
2021/09/15 03:17:36;;;;;;;;;;;;;;;22.79;56.28;101341.78;4914602;29;19934;-68
2021/09/15 03:20:04;;;;;;;;;;;;;;;22.78;56.54;101348.16;4914488;29;19923;-63
2021/09/15 03:22:31;;;;;;;;;;;;;;;22.77;56.34;101338.44;4914206;29;20328;-61
2021/09/15 03:24:58;;;;;;;;;;;;;;;22.78;56.59;101338.28;4919757;29;19947;-69
2021/09/15 03:27:24;;;;;;;;;;;;;;;22.78;56.52;101350.81;4933012;29;19930;-61
2021/09/15 03:29:51;;;;;;;;;;;;;;;22.78;56.63;101342.78;4926784;29;19930;-61
2021/09/15 03:32:17;;;;;;;;;;;;;;;22.75;56.51;101349.25;4914561;29;19923;-65
2021/09/15 03:34:44;;;;;;;;;;;;;;;22.75;56.37;101353.78;4914159;29;20368;-62
2021/09/15 03:37:11;;;;;;;;;;;;;;;22.71;56.54;101352.41;4914173;29;19926;-64
2021/09/15 03:39:37;;;;;;;;;;;;;;;22.69;56.82;101357.06;4914022;29;19923;-64
2021/09/15 03:42:04;;;;;;;;;;;;;;;22.66;56.60;101360.88;4914226;29;19938;-62
2021/09/15 03:44:32;;;;;;;;;;;;;;;22.63;56.93;101364.69;4913970;29;19930;-62
2021/09/15 03:46:59;;;;;;;;;;;;;;;22.55;57.39;101361.09;4913789;29;19950;-61
2021/09/15 03:49:26;;;;;;;;;;;;;;;22.57;57.11;101367.97;4914169;29;19927;-60
2021/09/15 03:51:52;;;;;;;;;;;;;;;22.37;57.85;101371.78;4917877;29;20292;-61
2021/09/15 03:54:19;;;;;;;;;;;;;;;22.47;57.18;101373.41;4932447;29;19923;-65
2021/09/15 03:56:45;;;;;;;;;;;;;;;22.39;57.77;101373.31;4913554;29;20312;-64
2021/09/15 03:59:12;;;;;;;;;;;;;;;22.45;57.46;101374.56;4914080;29;19974;-61
2021/09/15 04:01:38;;;;;;;;;;;;;;;22.47;57.34;101381.44;4913665;29;19971;-61
2021/09/15 04:04:05;;;;;;;;;;;;;;;22.46;57.48;101384.22;4913852;29;19942;-68
2021/09/15 04:06:32;;;;;;;;;;;;;;;22.41;57.55;101381.16;4913913;29;19930;-66
2021/09/15 04:08:58;;;;;;;;;;;;;;;22.42;57.47;101375.66;4913457;29;19929;-64
2021/09/15 04:11:25;;;;;;;;;;;;;;;22.35;57.81;101378.06;4913586;29;19971;-62
2021/09/15 04:13:51;;;;;;;;;;;;;;;22.32;57.72;101380.19;4913429;29;19923;-67
2021/09/15 04:16:18;;;;;;;;;;;;;;;22.34;57.51;101380.91;4913348;29;19923;-60
2021/09/15 04:18:44;;;;;;;;;;;;;;;22.32;57.69;101374.84;4913576;29;19955;-61
2021/09/15 04:21:11;;;;;;;;;;;;;;;22.35;57.44;101380.75;4913794;29;19994;-63
2021/09/15 04:31:52;;;;;;;;;;;;;;;22.40;57.47;101382.16;4913279;29;19970;-62
2021/09/15 04:34:18;;;;;;;;;;;;;;;22.39;57.27;101375.16;4917593;29;20025;-68
2021/09/15 04:36:45;;;;;;;;;;;;;;;22.38;57.55;101384.16;4932318;29;20340;-66
2021/09/15 04:39:11;;;;;;;;;;;;;;;22.37;57.35;101390.50;4928325;29;19972;-67
2021/09/15 04:41:38;;;;;;;;;;;;;;;22.37;57.04;101388.63;4913198;29;19937;-67
2021/09/15 04:44:04;;;;;;;;;;;;;;;22.37;57.28;101394.00;4913387;29;19930;-62
2021/09/15 04:46:31;;;;;;;;;;;;;;;22.37;57.17;101399.34;4913226;29;19935;-63
2021/09/15 04:48:57;;;;;;;;;;;;;;;22.37;57.30;101394.00;4920389;29;19923;-68
2021/09/15 04:51:24;;;;;;;;;;;;;;;22.38;57.37;101394.84;4923253;29;19922;-61
2021/09/15 04:53:50;;;;;;;;;;;;;;;22.39;57.33;101394.69;4932107;29;19922;-60
2021/09/15 04:56:17;;;;;;;;;;;;;;;22.37;57.10;101395.84;4931983;29;19977;-67
2021/09/15 04:58:43;;;;;;;;;;;;;;;22.34;57.24;101394.28;4931895;29;19945;-62
2021/09/15 05:01:10;;;;;;;;;;;;;;;22.34;57.19;101399.63;4932272;29;19923;-64
2021/09/15 05:03:37;;;;;;;;;;;;;;;22.34;57.28;101402.28;4932078;29;19994;-65
2021/09/15 05:06:03;;;;;;;;;;;;;;;22.35;57.12;101420.03;4932231;29;19927;-63
2021/09/15 05:08:30;;;;;;;;;;;;;;;22.34;57.34;101415.66;4916844;29;19923;-65
2021/09/15 05:10:56;;;;;;;;;;;;;;;22.35;56.90;101417.34;4913165;29;19978;-62
2021/09/15 05:13:23;;;;;;;;;;;;;;;22.36;57.04;101416.38;4913306;29;19923;-66
2021/09/15 05:15:49;;;;;;;;;;;;;;;22.41;56.90;101397.22;4912478;29;19923;-67
2021/09/15 05:18:20;;;;;;;;;;;;;;;22.47;56.79;101384.09;4912874;29;19923;-68
2021/09/15 05:20:53;;;;;;;;;;;;;;;22.54;56.76;101388.84;4912828;29;19930;-64
2021/09/15 05:23:19;;;;;;;;;;;;;;;22.57;56.55;101385.88;4912769;29;20048;-62
2021/09/15 05:25:46;;;;;;;;;;;;;;;22.60;56.39;101393.59;4912870;29;19931;-64
2021/09/15 05:28:12;;;;;;;;;;;;;;;22.64;56.38;101403.00;4913066;29;19927;-66
2021/09/15 05:30:39;;;;;;;;;;;;;;;22.65;56.43;101402.00;4913004;29;19927;-65
2021/09/15 05:33:08;;;;;;;;;;;;;;;22.71;56.40;101411.28;4912836;29;19923;-67
2021/09/15 05:35:35;;;;;;;;;;;;;;;22.74;56.17;101406.47;4926978;29;19929;-66
2021/09/15 05:38:01;;;;;;;;;;;;;;;22.73;56.55;101412.81;4933668;29;19927;-68
2021/09/15 05:40:28;;;;;;;;;;;;;;;22.74;56.32;101408.28;4926175;29;20340;-67
2021/09/15 05:42:54;;;;;;;;;;;;;;;22.76;56.28;101407.13;4916222;29;19927;-69
2021/09/15 05:45:21;;;;;;;;;;;;;;;22.80;56.27;101413.91;4933888;29;19926;-63
2021/09/15 05:47:47;;;;;;;;;;;;;;;22.83;56.29;101413.59;4934820;29;19977;-68
2021/09/15 05:50:14;;;;;;;;;;;;;;;22.81;56.50;101420.06;4935114;29;20371;-64
2021/09/15 05:52:44;;;;;;;;;;;;;;;22.81;56.44;101418.22;4934794;29;19935;-66
2021/09/15 05:55:11;;;;;;;;;;;;;;;22.99;56.08;101417.41;4934809;29;19923;-66
2021/09/15 05:57:38;;;;;;;;;;;;;;;22.94;55.91;101414.34;4934145;29;20395;-67
2021/09/15 06:00:05;;;;;;;;;;;;;;;22.94;55.81;101417.03;4934665;29;19927;-66
2021/09/15 06:02:50;;;;;;;;;;;;;;;22.91;55.78;101417.34;4932298;29;20375;-67
2021/09/15 06:05:17;;;;;;;;;;;;;;;22.90;55.73;101415.66;4934077;29;19923;-67
2021/09/15 06:07:43;;;;;;;;;;;;;;;22.90;55.83;101421.00;4934238;29;19930;-68
2021/09/15 06:10:10;;;;;;;;;;;;;;;22.91;55.95;101415.50;4934603;29;19922;-64
2021/09/15 06:12:36;;;;;;;;;;;;;;;22.94;55.93;101415.22;4932455;29;19975;-65
2021/09/15 06:15:04;;;;;;;;;;;;;;;22.98;55.58;101408.56;4934337;29;20319;-68
2021/09/15 06:17:30;;;;;;;;;;;;;;;23.03;55.24;101409.91;4934226;29;20295;-67
2021/09/15 06:19:57;;;;;;;;;;;;;;;23.09;55.17;101409.31;4934010;29;19929;-66
2021/09/15 06:22:23;;;;;;;;;;;;;;;23.15;54.99;101408.75;4933610;29;19922;-66
2021/09/15 06:24:54;;;;;;;;;;;;;;;23.22;54.70;101403.59;4933985;29;19986;-67
2021/09/15 06:27:21;;;;;;;;;;;;;;;23.26;54.81;101405.81;4933963;29;19923;-63
2021/09/15 06:29:47;;;;;;;;;;;;;;;23.34;54.99;101401.50;4930746;29;19930;-67
2021/09/15 06:32:17;;;;;;;;;;;;;;;23.41;54.92;101397.22;4933952;29;19923;-67
2021/09/15 06:34:43;;;;;;;;;;;;;;;23.47;54.50;101404.66;4924101;29;19926;-67
2021/09/15 06:37:10;;;;;;;;;;;;;;;23.52;54.37;101407.69;4933440;29;19926;-65
2021/09/15 06:39:37;;;;;;;;;;;;;;;23.57;54.07;101407.25;4934085;29;19930;-65
2021/09/15 06:42:03;;;;;;;;;;;;;;;23.59;53.90;101415.94;4933743;29;19979;-65
2021/09/15 06:44:30;;;;;;;;;;;;;;;23.63;54.07;101412.81;4933895;29;20269;-67
2021/09/15 06:46:57;;;;;;;;;;;;;;;23.62;54.16;101415.66;4933114;29;20359;-67
2021/09/15 06:49:23;;;;;;;;;;;;;;;23.63;53.79;101414.66;4913906;29;19959;-68
2021/09/15 06:51:50;;;;;;;;;;;;;;;23.63;53.75;101404.75;4914835;29;19927;-67
2021/09/15 06:54:16;;;;;;;;;;;;;;;23.69;53.62;101399.78;4914497;29;19927;-65
2021/09/15 06:56:45;;;;;;;;;;;;;;;23.71;53.48;101397.78;4914700;29;20372;-67
2021/09/15 06:59:12;;;;;;;;;;;;;;;23.75;53.53;101399.16;4915123;29;19923;-67
2021/09/15 07:01:38;;;;;;;;;;;;;;;23.82;53.04;101397.53;4914266;29;19987;-68
2021/09/15 07:04:05;;;;;;;;;;;;;;;23.83;52.87;101409.91;4913650;29;20414;-68
2021/09/15 07:06:31;;;;;;;;;;;;;;;23.88;52.96;101412.94;4914221;29;19927;-67
2021/09/15 07:08:58;;;;;;;;;;;;;;;23.89;52.73;101411.97;4914698;29;20340;-68
2021/09/15 07:11:24;;;;;;;;;;;;;;;23.91;52.92;101403.78;4914343;29;20380;-67
2021/09/15 07:13:51;;;;;;;;;;;;;;;23.96;52.78;101413.03;4914123;29;19975;-67
2021/09/15 07:16:18;;;;;;;;;;;;;;;24.01;53.07;101406.34;4914408;29;19951;-68
2021/09/15 07:18:44;;;;;;;;;;;;;;;24.04;52.75;101403.38;4914177;29;19923;-68
2021/09/15 07:21:13;;;;;;;;;;;;;;;24.06;52.77;101412.06;4913844;29;20297;-68
2021/09/15 07:23:40;;;;;;;;;;;;;;;24.10;52.47;101413.47;4914366;29;19923;-67
2021/09/15 07:26:06;;;;;;;;;;;;;;;24.17;52.23;101413.66;4920506;29;19931;-67
2021/09/15 07:28:33;;;;;;;;;;;;;;;24.24;51.88;101412.00;4932752;29;19926;-67
2021/09/15 07:30:59;;;;;;;;;;;;;;;24.29;51.64;101413.22;4932592;29;19927;-67
2021/09/15 07:33:26;;;;;;;;;;;;;;;24.37;51.36;101404.34;4930181;29;19933;-67
2021/09/15 07:35:52;;;;;;;;;;;;;;;24.43;51.16;101408.25;4931993;29;19986;-67
2021/09/15 07:38:19;;;;;;;;;;;;;;;24.50;50.62;101417.31;4919010;29;19927;-67
2021/09/15 07:40:45;;;;;;;;;;;;;;;24.58;50.49;101416.50;4914003;29;19933;-68
2021/09/15 07:43:12;;;;;;;;;;;;;;;24.61;50.53;101426.91;4913924;29;19929;-66
2021/09/15 07:45:39;;;;;;;;;;;;;;;24.59;50.20;101427.09;4913789;29;19927;-66
2021/09/15 07:48:05;;;;;;;;;;;;;;;24.55;50.02;101425.72;4916248;29;19939;-67
2021/09/15 07:50:32;;;;;;;;;;;;;;;24.52;49.97;101425.19;4926486;29;19930;-66
2021/09/15 07:52:58;;;;;;;;;;;;;;;24.53;49.73;101427.72;4931514;29;19929;-67
2021/09/15 07:55:25;;;;;;;;;;;;;;;24.50;50.04;101433.41;4912964;29;19923;-67
2021/09/15 07:57:53;;;;;;;;;;;;;;;24.52;49.85;101428.72;4913409;29;19923;-67
2021/09/15 08:00:20;;;;;;;;;;;;;;;24.55;49.46;101432.94;4913508;29;19929;-67
2021/09/15 08:02:48;;;;;;;;;;;;;;;24.57;49.52;101438.94;4913569;29;19923;-68
2021/09/15 08:05:15;;;;;;;;;;;;;;;24.56;49.71;101442.66;4914241;29;19923;-68
2021/09/15 08:07:42;;;;;;;;;;;;;;;24.53;49.29;101448.34;4932178;29;20403;-67
2021/09/15 08:10:09;;;;;;;;;;;;;;;24.56;49.49;101451.53;4932305;29;19932;-67
2021/09/15 08:12:35;;;;;;;;;;;;;;;24.55;49.69;101449.03;4932024;29;20340;-67
2021/09/15 08:15:03;;;;;;;;;;;;;;;24.56;49.72;101453.41;4931778;29;19926;-68
2021/09/15 08:17:29;;;;;;;;;;;;;;;24.58;49.67;101448.69;4932201;29;19934;-68
2021/09/15 08:19:56;;;;;;;;;;;;;;;24.64;49.65;101445.38;4931935;29;20403;-68
2021/09/15 08:22:23;;;;;;;;;;;;;;;24.69;49.36;101444.91;4931934;29;19927;-68
2021/09/15 08:24:49;;;;;;;;;;;;;;;24.67;49.10;101446.91;4931652;29;19930;-68
2021/09/15 08:27:16;;;;;;;;;;;;;;;24.74;49.06;101451.47;4931896;29;19922;-68
2021/09/15 08:29:42;;;;;;;;;;;;;;;24.79;49.14;101453.66;4931865;29;19922;-67
2021/09/15 08:32:09;;;;;;;;;;;;;;;24.80;48.90;101463.41;4931985;29;19934;-68
2021/09/15 08:34:35;;;;;;;;;;;;;;;24.79;49.13;101469.78;4931688;29;19927;-68
2021/09/15 08:37:02;;;;;;;;;;;;;;;24.78;48.99;101476.13;4931908;29;20295;-67
2021/09/15 08:39:28;;;;;;;;;;;;;;;24.84;49.12;101474.66;4931646;29;19923;-68
2021/09/15 08:41:55;;;;;;;;;;;;;;;24.88;49.20;101478.69;4928790;29;19931;-67
2021/09/15 08:44:21;;;;;;;;;;;;;;;24.97;49.23;101475.00;4912477;29;20010;-67
2021/09/15 08:46:48;;;;;;;;;;;;;;;25.08;49.07;101472.03;4912956;29;20447;-65
2021/09/15 08:49:16;;;;;;;;;;;;;;;25.23;48.84;101471.34;4912885;29;19922;-68
2021/09/15 08:51:43;;;;;;;;;;;;;;;25.57;48.03;101471.25;4912606;29;19974;-67
2021/09/15 08:54:11;;;;;;;;;;;;;;;25.59;48.07;101469.22;4913754;29;20432;-67
2021/09/15 08:56:38;;;;;;;;;;;;;;;25.58;48.29;101462.19;4929900;29;19926;-68
2021/09/15 08:59:04;;;;;;;;;;;;;;;25.67;48.12;101462.19;4918759;29;19930;-69
2021/09/15 09:01:31;;;;;;;;;;;;;;;25.69;48.07;101463.69;4917690;29;19971;-69
2021/09/15 09:03:58;;;;;;;;;;;;;;;25.84;47.69;101463.00;4912467;29;19978;-67
2021/09/15 09:06:25;;;;;;;;;;;;;;;26.06;47.40;101456.94;4912635;29;19923;-69
2021/09/15 09:09:00;;;;;;;;;;;;;;;26.18;47.05;101453.88;4913057;29;19930;-69
2021/09/15 09:11:27;;;;;;;;;;;;;;;26.30;46.88;101446.28;4912766;29;19923;-69
2021/09/15 09:13:55;;;;;;;;;;;;;;;26.52;46.47;101444.66;4915952;29;19930;-69
2021/09/15 09:16:42;;;;;;;;;;;;;;;26.71;46.07;101436.16;4916160;29;19979;-68
2021/09/15 09:19:10;;;;;;;;;;;;;;;26.75;45.75;101442.06;4916177;29;19923;-69
2021/09/15 09:21:38;;;;;;;;;;;;;;;26.91;45.69;101432.22;4916097;29;19935;-69
2021/09/15 09:24:06;;;;;;;;;;;;;;;27.26;44.82;101422.69;4915929;29;19932;-69
2021/09/15 09:26:48;;;;;;;;;;;;;;;27.53;44.27;101407.81;4916523;29;19945;-65
2021/09/15 09:29:16;;;;;;;;;;;;;;;27.61;43.80;101404.19;4927804;29;19929;-69
2021/09/15 09:32:01;;;;;;;;;;;;;;;27.72;43.90;101411.03;4935147;29;19993;-69
2021/09/15 09:34:28;;;;;;;;;;;;;;;27.50;44.37;101413.59;4934264;29;19930;-67
2021/09/15 09:37:06;;;;;;;;;;;;;;;27.27;44.60;101420.84;4934926;29;19923;-69
2021/09/15 09:39:33;;;;;;;;;;;;;;;27.01;45.10;101417.47;4934679;29;19986;-69
2021/09/15 09:42:00;;;;;;;;;;;;;;;26.94;45.27;101415.69;4934458;29;19945;-69
2021/09/15 09:44:27;;;;;;;;;;;;;;;27.07;44.91;101412.41;4931743;29;20300;-69
2021/09/15 09:46:54;;;;;;;;;;;;;;;27.33;44.22;101403.94;4934433;29;19934;-67
2021/09/15 09:49:20;;;;;;;;;;;;;;;27.24;44.28;101410.44;4933598;29;19926;-69
2021/09/15 09:51:47;;;;;;;;;;;;;;;27.09;44.65;101402.28;4934543;29;19950;-66
2021/09/15 09:54:22;;;;;;;;;;;;;;;26.96;44.76;101400.19;4934180;29;19930;-69
2021/09/15 09:56:49;;;;;;;;;;;;;;;27.03;44.63;101406.53;4934274;29;19932;-66
2021/09/15 09:59:16;;;;;;;;;;;;;;;27.26;43.95;101402.97;4934291;29;19922;-67
2021/09/15 10:01:46;;;;;;;;;;;;;;;27.77;42.90;101396.97;4931174;29;19945;-68
2021/09/15 10:04:13;;;;;;;;;;;;;;;27.77;42.80;101395.13;4925374;29;19983;-68
2021/09/15 10:06:40;;;;;;;;;;;;;;;28.15;42.00;101386.94;4915162;29;19923;-69
2021/09/15 10:09:07;;;;;;;;;;;;;;;28.41;41.70;101391.00;4926689;29;19926;-69
2021/09/15 10:11:34;;;;;;;;;;;;;;;29.02;40.40;101381.69;4934072;29;19930;-69
2021/09/15 10:14:02;;;;;;;;;;;;;;;28.85;40.73;101370.31;4933892;29;19930;-68
2021/09/15 10:16:28;;;;;;;;;;;;;;;29.33;39.83;101372.41;4934078;29;19986;-69
2021/09/15 10:19:00;;;;;;;;;;;;;;;29.77;39.10;101362.28;4933902;29;19923;-66
2021/09/15 10:21:31;;;;;;;;;;;;;;;29.86;39.12;101363.78;4921344;29;20380;-67
2021/09/15 10:23:57;;;;;;;;;;;;;;;30.04;38.85;101376.00;4913254;29;20260;-67
2021/09/15 10:26:24;;;;;;;;;;;;;;;30.05;38.69;101378.50;4915110;29;20395;-67
2021/09/15 10:29:09;;;;;;;;;;;;;;;29.90;38.81;101366.97;4931697;29;19930;-64
2021/09/15 10:31:59;;;;;;;;;;;;;;;29.71;39.39;101365.78;4933308;29;19995;-64
2021/09/15 10:37:04;;;;;;;;;;;;;;;29.71;39.71;101369.34;4929966;29;20400;-65
2021/09/15 10:39:31;;;;;;;;;;;;;;;29.65;39.70;101372.84;4924809;29;19978;-65
2021/09/15 10:41:58;;;;;;;;;;;;;;;29.53;40.22;101377.13;4932776;29;20013;-65
2021/09/15 10:44:25;;;;;;;;;;;;;;;29.13;41.08;101374.94;4926982;29;19923;-66
2021/09/15 10:47:13;;;;;;;;;;;;;;;29.21;40.91;101373.94;4915158;29;19985;-65
2021/09/15 10:49:41;;;;;;;;;;;;;;;29.11;41.20;101376.97;4925734;29;19930;-65
2021/09/15 10:52:08;;;;;;;;;;;;;;;28.71;42.18;101363.09;4933097;29;19942;-65
2021/09/15 10:54:42;;;;;;;;;;;;;;;28.43;42.78;101353.00;4932888;29;19927;-65
2021/09/15 10:57:13;;;;;;;;;;;;;;;28.11;43.51;101364.06;4930383;29;19927;-65
2021/09/15 10:59:49;;;;;;;;;;;;;;;27.96;43.89;101363.19;4918301;29;19934;-64
2021/09/15 11:02:23;;;;;;;;;;;;;;;28.00;43.82;101359.13;4918206;29;20451;-64
2021/09/15 11:04:50;;;;;;;;;;;;;;;28.14;43.46;101343.97;4922012;29;19922;-65
2021/09/15 11:07:35;;;;;;;;;;;;;;;28.15;43.54;101343.78;4932779;29;19922;-66
2021/09/15 11:10:02;;;;;;;;;;;;;;;28.09;43.77;101341.81;4925923;29;19927;-64
2021/09/15 11:12:44;;;;;;;;;;;;;;;28.18;43.50;101337.97;4932523;29;20268;-64
2021/09/15 11:15:27;;;;;;;;;;;;;;;28.22;43.44;101337.63;4931349;29;19983;-63
2021/09/15 11:17:53;;;;;;;;;;;;;;;28.30;43.30;101337.50;4930096;29;19923;-67
2021/09/15 11:20:20;;;;;;;;;;;;;;;28.39;42.94;101336.38;4932713;29;19926;-67
2021/09/15 11:22:47;;;;;;;;;;;;;;;28.54;42.83;101335.47;4932944;29;20601;-67
2021/09/15 11:25:17;;;;;;;;;;;;;;;28.98;42.03;101331.78;4932885;29;19927;-66
2021/09/15 11:28:04;;;;;;;;;;;;;;;29.51;41.00;101333.22;4932719;29;19923;-65
2021/09/15 11:30:30;;;;;;;;;;;;;;;29.30;41.58;101337.66;4914101;29;19930;-66
2021/09/15 11:32:57;;;;;;;;;;;;;;;29.17;41.66;101336.50;4913784;29;19923;-68
2021/09/15 11:35:24;;;;;;;;;;;;;;;29.20;41.99;101337.13;4925794;29;19923;-68
2021/09/15 11:37:51;;;;;;;;;;;;;;;29.42;41.15;101338.78;4929733;29;19927;-69
2021/09/15 11:40:25;;;;;;;;;;;;;;;29.22;41.72;101330.50;4932176;29;20317;-67
2021/09/15 11:42:52;;;;;;;;;;;;;;;29.46;41.41;101326.53;4932636;29;19926;-67
2021/09/15 11:45:19;;;;;;;;;;;;;;;30.05;39.92;101326.25;4931793;29;19922;-68
2021/09/15 11:47:50;;;;;;;;;;;;;;;30.42;39.41;101324.06;4931261;29;19944;-65
2021/09/15 11:50:18;;;;;;;;;;;;;;;30.56;39.17;101323.09;4931285;29;19923;-67
2021/09/15 11:52:49;;;;;;;;;;;;;;;30.66;39.39;101324.56;4931166;29;20272;-65
2021/09/15 11:55:17;;;;;;;;;;;;;;;30.23;40.25;101321.09;4930804;29;20383;-65
2021/09/15 11:57:45;;;;;;;;;;;;;;;29.80;41.08;101321.31;4930930;29;19945;-65
2021/09/15 12:00:12;;;;;;;;;;;;;;;29.71;41.29;101311.69;4930801;29;19930;-65
2021/09/15 12:02:42;;;;;;;;;;;;;;;29.65;41.75;101303.34;4928833;29;19997;-65
2021/09/15 12:05:09;;;;;;;;;;;;;;;29.59;41.83;101298.72;4930456;29;20065;-65
2021/09/15 12:07:37;;;;;;;;;;;;;;;29.66;41.46;101296.06;4930846;29;19930;-64
2021/09/15 12:10:07;;;;;;;;;;;;;;;29.42;42.23;101298.22;4930792;29;19923;-66
2021/09/15 12:12:34;;;;;;;;;;;;;;;29.18;42.67;101296.78;4930341;29;19922;-66
2021/09/15 12:15:02;;;;;;;;;;;;;;;29.09;43.14;101297.97;4930758;29;19926;-69
2021/09/15 12:17:29;;;;;;;;;;;;;;;29.05;43.30;101305.66;4930970;29;19922;-69
2021/09/15 12:19:56;;;;;;;;;;;;;;;29.07;43.15;101295.47;4930937;29;19922;-70
2021/09/15 12:22:24;;;;;;;;;;;;;;;29.00;43.35;101298.13;4929977;29;19969;-68
2021/09/15 12:25:07;;;;;;;;;;;;;;;29.09;42.99;101298.81;4930437;29;19923;-69
2021/09/15 12:27:34;;;;;;;;;;;;;;;29.27;42.51;101298.31;4928954;29;20439;-69
2021/09/15 12:30:05;;;;;;;;;;;;;;;29.43;42.03;101285.53;4930946;29;19923;-67
2021/09/15 12:32:37;;;;;;;;;;;;;;;29.59;41.72;101287.91;4930924;29;19979;-71
2021/09/15 12:35:04;;;;;;;;;;;;;;;29.70;41.66;101289.22;4927532;29;19934;-69
2021/09/15 12:37:38;;;;;;;;;;;;;;;29.79;41.32;101279.06;4930880;29;19970;-69
2021/09/15 12:40:06;;;;;;;;;;;;;;;29.79;41.44;101279.91;4928498;29;19978;-73
2021/09/15 12:42:36;;;;;;;;;;;;;;;30.08;40.86;101266.28;4930525;29;19923;-73
2021/09/15 12:45:05;;;;;;;;;;;;;;;30.27;40.74;101273.63;4926349;29;20013;-70
2021/09/15 12:47:41;;;;;;;;;;;;;;;30.61;40.06;101279.09;4927069;29;20333;-68
2021/09/15 12:50:11;;;;;;;;;;;;;;;30.91;39.53;101263.25;4933186;29;20403;-69